sensor_id;sensor_type;location;lat;lon;timestamp;pressure;altitude;pressure_sealevel;temperature;humidity
26859;BME280;14429;48.346;16.338;2024-01-16T00:00:06;98632.53;;;11.36;42.74
26859;BME280;14429;48.346;16.338;2024-01-16T00:02:31;98637.00;;;11.26;42.92
26859;BME280;14429;48.346;16.338;2024-01-16T00:04:57;98636.91;;;11.07;43.45
26859;BME280;14429;48.346;16.338;2024-01-16T00:07:22;98631.38;;;11.29;42.71
26859;BME280;14429;48.346;16.338;2024-01-16T00:09:49;98628.94;;;11.17;42.99
26859;BME280;14429;48.346;16.338;2024-01-16T00:12:14;98627.91;;;10.99;43.59
26859;BME280;14429;48.346;16.338;2024-01-16T00:14:40;98634.75;;;11.31;42.78
26859;BME280;14429;48.346;16.338;2024-01-16T00:17:05;98643.69;;;11.11;43.18
26859;BME280;14429;48.346;16.338;2024-01-16T00:19:30;98645.16;;;10.95;43.45
26859;BME280;14429;48.346;16.338;2024-01-16T00:21:56;98658.56;;;11.14;42.63
26859;BME280;14429;48.346;16.338;2024-01-16T00:24:21;98652.59;;;11.01;43.41
26859;BME280;14429;48.346;16.338;2024-01-16T00:26:48;98656.66;;;10.96;43.56
26859;BME280;14429;48.346;16.338;2024-01-16T00:29:13;98644.84;;;11.28;42.68
26859;BME280;14429;48.346;16.338;2024-01-16T00:31:39;98647.25;;;10.92;43.53
26859;BME280;14429;48.346;16.338;2024-01-16T00:34:05;98655.25;;;11.21;42.89
26859;BME280;14429;48.346;16.338;2024-01-16T00:36:30;98652.16;;;11.26;42.65
26859;BME280;14429;48.346;16.338;2024-01-16T00:38:55;98659.34;;;10.76;43.81
26859;BME280;14429;48.346;16.338;2024-01-16T00:41:21;98670.50;;;11.19;42.90
26859;BME280;14429;48.346;16.338;2024-01-16T00:43:48;98679.78;;;10.46;42.54
26859;BME280;14429;48.346;16.338;2024-01-16T00:46:13;98667.06;;;10.69;43.99
26859;BME280;14429;48.346;16.338;2024-01-16T00:48:39;98685.94;;;10.86;43.63
26859;BME280;14429;48.346;16.338;2024-01-16T00:51:04;98688.59;;;11.06;43.21
26859;BME280;14429;48.346;16.338;2024-01-16T00:53:30;98693.16;;;10.75;44.00
26859;BME280;14429;48.346;16.338;2024-01-16T00:55:55;98693.91;;;11.06;43.11
26859;BME280;14429;48.346;16.338;2024-01-16T00:58:21;98708.50;;;11.03;43.12
26859;BME280;14429;48.346;16.338;2024-01-16T01:00:48;98707.59;;;10.93;43.51
26859;BME280;14429;48.346;16.338;2024-01-16T01:03:14;98701.19;;;11.04;43.12
26859;BME280;14429;48.346;16.338;2024-01-16T01:05:39;98721.19;;;10.90;43.53
26859;BME280;14429;48.346;16.338;2024-01-16T01:08:05;98717.59;;;11.00;43.42
26859;BME280;14429;48.346;16.338;2024-01-16T01:10:31;98716.59;;;11.21;42.70
26859;BME280;14429;48.346;16.338;2024-01-16T01:12:56;98726.66;;;10.88;43.55
26859;BME280;14429;48.346;16.338;2024-01-16T01:15:22;98742.94;;;10.95;43.42
26859;BME280;14429;48.346;16.338;2024-01-16T01:17:49;98742.69;;;10.98;43.32
26859;BME280;14429;48.346;16.338;2024-01-16T01:20:17;98749.41;;;10.92;43.42
26859;BME280;14429;48.346;16.338;2024-01-16T01:22:43;98747.53;;;11.03;43.17
26859;BME280;14429;48.346;16.338;2024-01-16T01:25:09;98752.31;;;11.09;43.00
26859;BME280;14429;48.346;16.338;2024-01-16T01:27:34;98758.28;;;10.11;44.69
26859;BME280;14429;48.346;16.338;2024-01-16T01:29:59;98760.13;;;11.02;43.11
26859;BME280;14429;48.346;16.338;2024-01-16T01:32:25;98747.78;;;11.01;43.13
26859;BME280;14429;48.346;16.338;2024-01-16T01:34:52;98762.31;;;10.87;43.48
26859;BME280;14429;48.346;16.338;2024-01-16T01:37:17;98759.88;;;11.04;43.03
26859;BME280;14429;48.346;16.338;2024-01-16T01:39:42;98764.03;;;10.98;43.02
26859;BME280;14429;48.346;16.338;2024-01-16T01:42:08;98765.66;;;10.89;43.31
26859;BME280;14429;48.346;16.338;2024-01-16T01:44:33;98765.88;;;11.17;42.81
26859;BME280;14429;48.346;16.338;2024-01-16T01:46:59;98783.44;;;11.00;43.04
26859;BME280;14429;48.346;16.338;2024-01-16T01:49:25;98777.19;;;10.90;43.37
26859;BME280;14429;48.346;16.338;2024-01-16T01:51:53;98780.38;;;11.04;42.85
26859;BME280;14429;48.346;16.338;2024-01-16T01:54:20;98782.06;;;10.85;43.42
26859;BME280;14429;48.346;16.338;2024-01-16T01:56:47;98779.53;;;11.03;43.12
26859;BME280;14429;48.346;16.338;2024-01-16T01:59:13;98793.38;;;10.98;43.16
26859;BME280;14429;48.346;16.338;2024-01-16T02:01:39;98784.03;;;10.72;43.67
26859;BME280;14429;48.346;16.338;2024-01-16T02:04:06;98793.38;;;11.18;42.97
26859;BME280;14429;48.346;16.338;2024-01-16T02:06:32;98781.16;;;10.95;43.11
26859;BME280;14429;48.346;16.338;2024-01-16T02:08:59;98796.72;;;10.59;43.94
26859;BME280;14429;48.346;16.338;2024-01-16T02:11:24;98797.22;;;11.04;42.82
26859;BME280;14429;48.346;16.338;2024-01-16T02:13:50;98817.28;;;10.68;43.42
26859;BME280;14429;48.346;16.338;2024-01-16T02:16:19;98828.38;;;10.84;43.25
26859;BME280;14429;48.346;16.338;2024-01-16T02:18:44;98840.91;;;10.93;42.98
26859;BME280;14429;48.346;16.338;2024-01-16T02:21:10;98846.28;;;10.82;43.39
26859;BME280;14429;48.346;16.338;2024-01-16T02:23:37;98855.88;;;11.04;42.84
26859;BME280;14429;48.346;16.338;2024-01-16T02:26:04;98849.22;;;11.10;42.75
26859;BME280;14429;48.346;16.338;2024-01-16T02:28:29;98845.31;;;10.83;43.13
26859;BME280;14429;48.346;16.338;2024-01-16T02:30:55;98862.84;;;10.96;42.35
26859;BME280;14429;48.346;16.338;2024-01-16T02:33:20;98860.97;;;11.07;42.87
26859;BME280;14429;48.346;16.338;2024-01-16T02:35:45;98866.66;;;10.83;43.40
26859;BME280;14429;48.346;16.338;2024-01-16T02:38:11;98855.88;;;11.04;42.66
26859;BME280;14429;48.346;16.338;2024-01-16T02:40:38;98855.53;;;10.98;42.95
26859;BME280;14429;48.346;16.338;2024-01-16T02:43:03;98869.34;;;10.72;43.50
26859;BME280;14429;48.346;16.338;2024-01-16T02:45:29;98868.91;;;11.18;42.50
26859;BME280;14429;48.346;16.338;2024-01-16T02:47:54;98874.34;;;10.97;42.83
26859;BME280;14429;48.346;16.338;2024-01-16T02:50:19;98886.94;;;10.95;43.02
26859;BME280;14429;48.346;16.338;2024-01-16T02:52:45;98879.00;;;11.15;42.55
26859;BME280;14429;48.346;16.338;2024-01-16T02:55:10;98876.56;;;10.92;42.95
26859;BME280;14429;48.346;16.338;2024-01-16T02:57:37;98878.09;;;10.94;42.91
26859;BME280;14429;48.346;16.338;2024-01-16T03:00:03;98886.94;;;10.95;42.86
26859;BME280;14429;48.346;16.338;2024-01-16T03:02:29;98897.44;;;10.76;43.18
26859;BME280;14429;48.346;16.338;2024-01-16T03:04:54;98887.63;;;11.07;42.55
26859;BME280;14429;48.346;16.338;2024-01-16T03:07:20;98899.94;;;10.99;42.73
26859;BME280;14429;48.346;16.338;2024-01-16T03:09:45;98894.22;;;10.73;43.28
26859;BME280;14429;48.346;16.338;2024-01-16T03:12:10;98904.88;;;11.03;42.56
26859;BME280;14429;48.346;16.338;2024-01-16T03:14:37;98899.59;;;10.93;42.61
26859;BME280;14429;48.346;16.338;2024-01-16T03:17:03;98898.91;;;10.80;42.93
26859;BME280;14429;48.346;16.338;2024-01-16T03:19:28;98902.09;;;10.63;39.67
26859;BME280;14429;48.346;16.338;2024-01-16T03:21:54;98918.94;;;10.64;42.00
26859;BME280;14429;48.346;16.338;2024-01-16T03:24:19;98911.72;;;10.86;42.78
26859;BME280;14429;48.346;16.338;2024-01-16T03:26:45;98907.53;;;11.03;42.47
26859;BME280;14429;48.346;16.338;2024-01-16T03:29:10;98910.75;;;10.87;42.82
26859;BME280;14429;48.346;16.338;2024-01-16T03:31:37;98919.09;;;10.93;42.52
26859;BME280;14429;48.346;16.338;2024-01-16T03:34:03;98903.53;;;10.67;42.62
26859;BME280;14429;48.346;16.338;2024-01-16T03:36:28;98920.97;;;10.71;43.01
26859;BME280;14429;48.346;16.338;2024-01-16T03:38:53;98915.59;;;10.51;43.41
26859;BME280;14429;48.346;16.338;2024-01-16T03:41:19;98924.81;;;10.89;42.63
26859;BME280;14429;48.346;16.338;2024-01-16T03:43:44;98934.09;;;10.52;42.21
26859;BME280;14429;48.346;16.338;2024-01-16T03:46:10;98922.91;;;11.11;42.21
26859;BME280;14429;48.346;16.338;2024-01-16T03:48:37;98927.22;;;10.92;42.50
26859;BME280;14429;48.346;16.338;2024-01-16T03:51:03;98934.81;;;10.65;42.99
26859;BME280;14429;48.346;16.338;2024-01-16T03:53:28;98921.47;;;11.07;42.05
26859;BME280;14429;48.346;16.338;2024-01-16T03:55:53;98927.25;;;10.81;42.73
26859;BME280;14429;48.346;16.338;2024-01-16T03:58:19;98939.63;;;10.71;42.96
26859;BME280;14429;48.346;16.338;2024-01-16T04:00:44;98932.78;;;11.00;42.16
26859;BME280;14429;48.346;16.338;2024-01-16T04:03:10;98935.25;;;10.81;42.61
26859;BME280;14429;48.346;16.338;2024-01-16T04:05:37;98943.66;;;11.07;42.22
26859;BME280;14429;48.346;16.338;2024-01-16T04:08:03;98950.47;;;11.01;42.22
26859;BME280;14429;48.346;16.338;2024-01-16T04:10:28;98937.22;;;10.68;42.87
26859;BME280;14429;48.346;16.338;2024-01-16T04:12:53;98936.88;;;11.03;42.09
26859;BME280;14429;48.346;16.338;2024-01-16T04:15:19;98944.31;;;10.89;42.33
26859;BME280;14429;48.346;16.338;2024-01-16T04:17:44;98951.28;;;10.70;42.75
26859;BME280;14429;48.346;16.338;2024-01-16T04:20:11;98937.59;;;11.05;42.00
26859;BME280;14429;48.346;16.338;2024-01-16T04:22:37;98937.41;;;10.87;42.23
26859;BME280;14429;48.346;16.338;2024-01-16T04:25:04;98948.19;;;10.22;41.21
26859;BME280;14429;48.346;16.338;2024-01-16T04:27:29;98948.22;;;10.85;41.55
26859;BME280;14429;48.346;16.338;2024-01-16T04:29:54;98945.44;;;10.76;42.47
26859;BME280;14429;48.346;16.338;2024-01-16T04:32:20;98951.91;;;11.04;42.10
26859;BME280;14429;48.346;16.338;2024-01-16T04:34:45;98953.22;;;10.68;41.84
26859;BME280;14429;48.346;16.338;2024-01-16T04:37:11;98961.47;;;9.90;42.29
26859;BME280;14429;48.346;16.338;2024-01-16T04:39:37;98960.69;;;10.96;42.09
26859;BME280;14429;48.346;16.338;2024-01-16T04:42:03;98960.88;;;10.73;42.36
26859;BME280;14429;48.346;16.338;2024-01-16T04:44:29;98950.19;;;10.73;42.57
26859;BME280;14429;48.346;16.338;2024-01-16T04:46:54;98955.81;;;11.01;41.81
26859;BME280;14429;48.346;16.338;2024-01-16T04:49:20;98948.84;;;10.78;42.47
26859;BME280;14429;48.346;16.338;2024-01-16T04:51:45;98951.97;;;10.83;42.47
26859;BME280;14429;48.346;16.338;2024-01-16T04:54:11;98958.47;;;11.01;41.84
26859;BME280;14429;48.346;16.338;2024-01-16T04:56:38;98958.56;;;10.57;42.60
26859;BME280;14429;48.346;16.338;2024-01-16T04:59:03;98965.53;;;10.91;42.17
26859;BME280;14429;48.346;16.338;2024-01-16T05:01:29;98957.75;;;10.99;41.95
26859;BME280;14429;48.346;16.338;2024-01-16T05:03:54;98975.50;;;10.67;42.52
26859;BME280;14429;48.346;16.338;2024-01-16T05:06:20;98971.38;;;10.85;42.14
26859;BME280;14429;48.346;16.338;2024-01-16T05:08:45;98979.16;;;10.55;42.69
26859;BME280;14429;48.346;16.338;2024-01-16T05:11:11;98973.38;;;10.61;42.82
26859;BME280;14429;48.346;16.338;2024-01-16T05:13:38;98979.41;;;11.05;41.75
26859;BME280;14429;48.346;16.338;2024-01-16T05:16:04;98984.22;;;10.80;42.19
26859;BME280;14429;48.346;16.338;2024-01-16T05:18:29;98987.84;;;10.79;42.27
26859;BME280;14429;48.346;16.338;2024-01-16T05:20:55;98991.94;;;10.94;41.85
26859;BME280;14429;48.346;16.338;2024-01-16T05:23:20;98997.59;;;10.69;42.46
26859;BME280;14429;48.346;16.338;2024-01-16T05:25:45;99006.00;;;10.96;42.05
26859;BME280;14429;48.346;16.338;2024-01-16T05:28:11;99007.94;;;10.94;41.91
26859;BME280;14429;48.346;16.338;2024-01-16T05:30:38;99002.16;;;10.67;42.38
26859;BME280;14429;48.346;16.338;2024-01-16T05:33:03;99003.13;;;10.88;41.98
26859;BME280;14429;48.346;16.338;2024-01-16T05:35:29;98996.34;;;10.84;41.92
26859;BME280;14429;48.346;16.338;2024-01-16T05:37:54;99011.63;;;10.49;39.91
26859;BME280;14429;48.346;16.338;2024-01-16T05:40:19;99016.91;;;11.03;41.53
26859;BME280;14429;48.346;16.338;2024-01-16T05:42:45;99009.41;;;10.76;42.16
26859;BME280;14429;48.346;16.338;2024-01-16T05:45:10;99004.81;;;10.78;42.04
26859;BME280;14429;48.346;16.338;2024-01-16T05:47:37;99026.22;;;10.98;41.72
26859;BME280;14429;48.346;16.338;2024-01-16T05:50:03;99019.84;;;10.57;42.47
26859;BME280;14429;48.346;16.338;2024-01-16T05:52:29;99030.25;;;10.93;41.70
26859;BME280;14429;48.346;16.338;2024-01-16T05:54:54;99024.69;;;10.85;41.80
26859;BME280;14429;48.346;16.338;2024-01-16T05:57:20;99032.47;;;10.55;42.59
26859;BME280;14429;48.346;16.338;2024-01-16T05:59:45;99030.00;;;10.96;41.67
26859;BME280;14429;48.346;16.338;2024-01-16T06:02:10;99045.81;;;10.66;40.39
26859;BME280;14429;48.346;16.338;2024-01-16T06:04:37;99037.34;;;10.61;42.26
26859;BME280;14429;48.346;16.338;2024-01-16T06:07:03;99044.06;;;10.87;41.77
26859;BME280;14429;48.346;16.338;2024-01-16T06:09:28;99048.47;;;10.77;42.09
26859;BME280;14429;48.346;16.338;2024-01-16T06:11:54;99044.34;;;10.84;41.75
26859;BME280;14429;48.346;16.338;2024-01-16T06:14:19;99056.69;;;10.96;41.26
26859;BME280;14429;48.346;16.338;2024-01-16T06:16:44;99058.28;;;10.77;41.89
26859;BME280;14429;48.346;16.338;2024-01-16T06:19:10;99070.97;;;10.95;41.61
26859;BME280;14429;48.346;16.338;2024-01-16T06:21:37;99064.06;;;10.92;41.62
26859;BME280;14429;48.346;16.338;2024-01-16T06:24:02;99083.25;;;9.98;42.17
26859;BME280;14429;48.346;16.338;2024-01-16T06:26:28;99067.84;;;10.36;38.58
26859;BME280;14429;48.346;16.338;2024-01-16T06:28:53;99074.63;;;10.83;42.00
26859;BME280;14429;48.346;16.338;2024-01-16T06:31:18;99078.50;;;10.47;42.13
26859;BME280;14429;48.346;16.338;2024-01-16T06:33:44;99079.00;;;10.73;39.31
26859;BME280;14429;48.346;16.338;2024-01-16T06:36:09;99087.25;;;10.70;41.91
26859;BME280;14429;48.346;16.338;2024-01-16T06:38:38;99092.56;;;10.70;42.02
26859;BME280;14429;48.346;16.338;2024-01-16T06:41:03;99087.97;;;10.61;41.60
26859;BME280;14429;48.346;16.338;2024-01-16T06:43:29;99099.59;;;10.60;42.05
26859;BME280;14429;48.346;16.338;2024-01-16T06:45:54;99095.72;;;10.86;41.83
26859;BME280;14429;48.346;16.338;2024-01-16T06:48:20;99086.03;;;10.74;41.50
26859;BME280;14429;48.346;16.338;2024-01-16T06:50:45;99101.31;;;10.61;42.14
26859;BME280;14429;48.346;16.338;2024-01-16T06:53:10;99099.84;;;10.79;41.34
26859;BME280;14429;48.346;16.338;2024-01-16T06:55:37;99109.28;;;10.83;41.69
26859;BME280;14429;48.346;16.338;2024-01-16T06:58:03;99105.63;;;10.41;42.58
26859;BME280;14429;48.346;16.338;2024-01-16T07:00:28;99118.94;;;10.41;42.62
26859;BME280;14429;48.346;16.338;2024-01-16T07:02:53;99103.00;;;10.62;42.28
26859;BME280;14429;48.346;16.338;2024-01-16T07:05:19;99106.38;;;10.75;40.45
26859;BME280;14429;48.346;16.338;2024-01-16T07:07:44;99101.53;;;10.91;41.67
26859;BME280;14429;48.346;16.338;2024-01-16T07:10:10;99101.28;;;10.72;42.10
26859;BME280;14429;48.346;16.338;2024-01-16T07:12:36;99113.91;;;10.92;41.60
26859;BME280;14429;48.346;16.338;2024-01-16T07:15:02;99106.38;;;10.86;41.64
26859;BME280;14429;48.346;16.338;2024-01-16T07:17:27;99099.56;;;10.49;42.36
26859;BME280;14429;48.346;16.338;2024-01-16T07:19:53;99106.38;;;10.97;41.21
26859;BME280;14429;48.346;16.338;2024-01-16T07:22:18;99105.41;;;10.76;41.60
26859;BME280;14429;48.346;16.338;2024-01-16T07:24:43;99115.31;;;10.42;42.17
26859;BME280;14429;48.346;16.338;2024-01-16T07:27:09;99118.50;;;10.90;41.37
26859;BME280;14429;48.346;16.338;2024-01-16T07:29:36;99112.91;;;10.49;41.62
26859;BME280;14429;48.346;16.338;2024-01-16T07:32:01;99120.69;;;10.63;41.70
26859;BME280;14429;48.346;16.338;2024-01-16T07:34:26;99118.38;;;10.80;41.28
26859;BME280;14429;48.346;16.338;2024-01-16T07:36:52;99125.28;;;10.50;41.95
26859;BME280;14429;48.346;16.338;2024-01-16T07:39:17;99121.66;;;10.73;41.43
26859;BME280;14429;48.346;16.338;2024-01-16T07:41:43;99124.06;;;10.98;40.93
26859;BME280;14429;48.346;16.338;2024-01-16T07:44:08;99131.09;;;10.55;41.77
26859;BME280;14429;48.346;16.338;2024-01-16T07:46:35;99139.09;;;10.55;41.62
26859;BME280;14429;48.346;16.338;2024-01-16T07:49:00;99133.63;;;10.68;41.24
26859;BME280;14429;48.346;16.338;2024-01-16T07:51:26;99146.06;;;10.24;41.11
26859;BME280;14429;48.346;16.338;2024-01-16T07:54:04;99146.06;;;10.35;40.62
26859;BME280;14429;48.346;16.338;2024-01-16T07:56:30;99150.53;;;10.34;38.39
26859;BME280;14429;48.346;16.338;2024-01-16T07:58:55;99147.84;;;10.23;40.95
26859;BME280;14429;48.346;16.338;2024-01-16T08:01:21;99135.22;;;10.81;39.64
26859;BME280;14429;48.346;16.338;2024-01-16T08:03:48;99157.53;;;10.69;39.87
26859;BME280;14429;48.346;16.338;2024-01-16T08:06:13;99150.75;;;10.31;40.62
26859;BME280;14429;48.346;16.338;2024-01-16T08:08:39;99145.41;;;10.87;39.81
26859;BME280;14429;48.346;16.338;2024-01-16T08:11:04;99139.56;;;10.60;40.28
26859;BME280;14429;48.346;16.338;2024-01-16T08:13:29;99154.69;;;10.49;40.67
26859;BME280;14429;48.346;16.338;2024-01-16T08:15:55;99151.34;;;10.13;37.56
26859;BME280;14429;48.346;16.338;2024-01-16T08:18:20;99156.03;;;10.44;40.59
26859;BME280;14429;48.346;16.338;2024-01-16T08:20:47;99176.19;;;9.91;38.72
26859;BME280;14429;48.346;16.338;2024-01-16T08:23:12;99165.66;;;10.89;39.98
26859;BME280;14429;48.346;16.338;2024-01-16T08:25:38;99158.19;;;10.49;39.98
26859;BME280;14429;48.346;16.338;2024-01-16T08:28:03;99161.75;;;10.16;37.76
26859;BME280;14429;48.346;16.338;2024-01-16T08:30:29;99160.69;;;10.74;39.06
26859;BME280;14429;48.346;16.338;2024-01-16T09:22:18;99189.25;;;10.72;40.25
26859;BME280;14429;48.346;16.338;2024-01-16T09:24:43;99187.84;;;10.90;40.21
26859;BME280;14429;48.346;16.338;2024-01-16T09:27:09;99196.94;;;11.09;39.73
26859;BME280;14429;48.346;16.338;2024-01-16T09:29:34;99190.22;;;10.71;40.48
26859;BME280;14429;48.346;16.338;2024-01-16T09:31:59;99188.97;;;10.43;35.91
26859;BME280;14429;48.346;16.338;2024-01-16T09:34:25;99191.34;;;10.90;38.97
26859;BME280;14429;48.346;16.338;2024-01-16T09:36:50;99189.63;;;10.78;40.13
26859;BME280;14429;48.346;16.338;2024-01-16T09:39:17;99182.88;;;10.85;39.46
26859;BME280;14429;48.346;16.338;2024-01-16T09:41:44;99188.47;;;11.04;39.73
26859;BME280;14429;48.346;16.338;2024-01-16T09:44:09;99191.44;;;10.67;40.21
26859;BME280;14429;48.346;16.338;2024-01-16T09:46:37;99190.03;;;10.96;39.97
26859;BME280;14429;48.346;16.338;2024-01-16T09:49:03;99189.53;;;11.02;39.83
26859;BME280;14429;48.346;16.338;2024-01-16T09:51:28;99188.03;;;10.76;40.39
26859;BME280;14429;48.346;16.338;2024-01-16T09:53:54;99199.94;;;10.83;40.17
26859;BME280;14429;48.346;16.338;2024-01-16T09:56:22;99191.97;;;11.04;39.77
26859;BME280;14429;48.346;16.338;2024-01-16T09:58:49;99200.91;;;10.82;40.25
26859;BME280;14429;48.346;16.338;2024-01-16T10:01:15;99186.75;;;10.92;40.17
26859;BME280;14429;48.346;16.338;2024-01-16T10:03:44;99175.25;;;11.03;38.21
26859;BME280;14429;48.346;16.338;2024-01-16T10:06:10;99198.63;;;10.77;40.22
26859;BME280;14429;48.346;16.338;2024-01-16T10:08:37;99189.03;;;10.75;40.77
26859;BME280;14429;48.346;16.338;2024-01-16T10:11:03;99176.94;;;11.03;39.48
26859;BME280;14429;48.346;16.338;2024-01-16T10:13:31;99174.25;;;10.82;40.36
26859;BME280;14429;48.346;16.338;2024-01-16T10:15:57;99169.53;;;10.75;40.43
26859;BME280;14429;48.346;16.338;2024-01-16T10:18:23;99174.03;;;11.06;39.91
26859;BME280;14429;48.346;16.338;2024-01-16T10:20:49;99177.75;;;10.82;40.23
26859;BME280;14429;48.346;16.338;2024-01-16T10:23:22;99181.16;;;10.74;40.07
26859;BME280;14429;48.346;16.338;2024-01-16T10:26:04;99186.63;;;11.04;39.95
26859;BME280;14429;48.346;16.338;2024-01-16T10:28:31;99181.88;;;10.76;40.31
26859;BME280;14429;48.346;16.338;2024-01-16T10:31:01;99177.66;;;10.84;40.62
26859;BME280;14429;48.346;16.338;2024-01-16T10:33:27;99177.41;;;11.08;40.07
26859;BME280;14429;48.346;16.338;2024-01-16T10:35:52;99190.88;;;10.96;40.08
26859;BME280;14429;48.346;16.338;2024-01-16T10:38:32;99192.44;;;10.88;40.38
26859;BME280;14429;48.346;16.338;2024-01-16T10:41:09;99197.31;;;11.15;39.82
26859;BME280;14429;48.346;16.338;2024-01-16T10:43:36;99198.97;;;10.95;40.31
26859;BME280;14429;48.346;16.338;2024-01-16T10:46:12;99209.66;;;10.95;40.48
26859;BME280;14429;48.346;16.338;2024-01-16T10:48:38;99199.88;;;11.06;39.80
26859;BME280;14429;48.346;16.338;2024-01-16T10:51:05;99208.94;;;10.93;40.32
26859;BME280;14429;48.346;16.338;2024-01-16T10:53:33;99208.91;;;10.71;40.73
26859;BME280;14429;48.346;16.338;2024-01-16T10:56:00;99218.66;;;10.49;40.38
26859;BME280;14429;48.346;16.338;2024-01-16T10:58:26;99218.03;;;10.46;40.05
26859;BME280;14429;48.346;16.338;2024-01-16T11:00:53;99222.22;;;10.71;39.41
26859;BME280;14429;48.346;16.338;2024-01-16T11:03:25;99222.25;;;10.82;39.06
26859;BME280;14429;48.346;16.338;2024-01-16T11:05:52;99214.72;;;9.85;35.66
26859;BME280;14429;48.346;16.338;2024-01-16T11:08:19;99223.44;;;10.67;38.09
26859;BME280;14429;48.346;16.338;2024-01-16T11:10:45;99223.72;;;10.86;38.41
26859;BME280;14429;48.346;16.338;2024-01-16T11:13:11;99215.06;;;10.72;39.67
26859;BME280;14429;48.346;16.338;2024-01-16T11:15:37;99218.63;;;10.94;39.78
26859;BME280;14429;48.346;16.338;2024-01-16T11:18:06;99216.69;;;10.96;39.34
26859;BME280;14429;48.346;16.338;2024-01-16T11:20:32;99225.16;;;10.79;39.78
26859;BME280;14429;48.346;16.338;2024-01-16T11:22:59;99227.13;;;10.88;39.41
26859;BME280;14429;48.346;16.338;2024-01-16T11:25:31;99222.75;;;10.98;39.39
26859;BME280;14429;48.346;16.338;2024-01-16T11:28:07;99226.72;;;10.37;37.53
26859;BME280;14429;48.346;16.338;2024-01-16T11:30:33;99227.63;;;11.03;39.64
26859;BME280;14429;48.346;16.338;2024-01-16T11:32:59;99232.34;;;11.00;39.41
26859;BME280;14429;48.346;16.338;2024-01-16T11:35:49;99228.94;;;10.43;40.15
26859;BME280;14429;48.346;16.338;2024-01-16T11:38:16;99231.25;;;11.03;39.75
26859;BME280;14429;48.346;16.338;2024-01-16T11:40:45;99235.16;;;10.99;39.64
26859;BME280;14429;48.346;16.338;2024-01-16T11:43:35;99234.13;;;10.78;40.08
26859;BME280;14429;48.346;16.338;2024-01-16T11:46:02;99238.06;;;11.06;39.86
26859;BME280;14429;48.346;16.338;2024-01-16T11:48:28;99222.41;;;10.57;35.91
26859;BME280;14429;48.346;16.338;2024-01-16T11:50:54;99224.28;;;10.68;40.34
26859;BME280;14429;48.346;16.338;2024-01-16T11:53:36;99212.59;;;11.13;39.72
26859;BME280;14429;48.346;16.338;2024-01-16T11:58:58;99213.63;;;10.78;40.37
26859;BME280;14429;48.346;16.338;2024-01-16T12:01:26;99199.34;;;10.35;35.59
26859;BME280;14429;48.346;16.338;2024-01-16T12:04:01;99205.38;;;10.71;40.21
26859;BME280;14429;48.346;16.338;2024-01-16T12:06:28;99204.78;;;10.78;40.47
26859;BME280;14429;48.346;16.338;2024-01-16T12:08:53;99199.00;;;11.05;39.99
26859;BME280;14429;48.346;16.338;2024-01-16T12:11:19;99197.06;;;10.97;40.08
26859;BME280;14429;48.346;16.338;2024-01-16T12:13:47;99190.00;;;10.74;40.34
26859;BME280;14429;48.346;16.338;2024-01-16T12:16:25;99193.09;;;10.47;36.02
26859;BME280;14429;48.346;16.338;2024-01-16T12:19:04;99186.38;;;10.86;40.27
26859;BME280;14429;48.346;16.338;2024-01-16T12:21:33;99190.25;;;10.82;40.35
26859;BME280;14429;48.346;16.338;2024-01-16T12:23:58;99191.13;;;11.04;39.90
26859;BME280;14429;48.346;16.338;2024-01-16T12:26:24;99201.91;;;10.92;40.17
26859;BME280;14429;48.346;16.338;2024-01-16T12:28:51;99182.25;;;10.82;40.41
26859;BME280;14429;48.346;16.338;2024-01-16T12:31:17;99193.56;;;11.07;39.89
26859;BME280;14429;48.346;16.338;2024-01-16T12:33:43;99192.78;;;10.83;38.88
26859;BME280;14429;48.346;16.338;2024-01-16T12:36:08;99191.47;;;10.78;40.32
26859;BME280;14429;48.346;16.338;2024-01-16T12:38:35;99190.28;;;11.03;40.02
26859;BME280;14429;48.346;16.338;2024-01-16T12:41:00;99183.97;;;10.94;40.17
26859;BME280;14429;48.346;16.338;2024-01-16T12:43:26;99195.47;;;10.73;40.55
26859;BME280;14429;48.346;16.338;2024-01-16T12:45:55;99186.16;;;11.00;39.12
26859;BME280;14429;48.346;16.338;2024-01-16T12:48:22;99180.69;;;10.90;38.80
26859;BME280;14429;48.346;16.338;2024-01-16T12:50:48;99180.06;;;10.76;40.48
26859;BME280;14429;48.346;16.338;2024-01-16T12:53:13;99189.53;;;11.12;39.74
26859;BME280;14429;48.346;16.338;2024-01-16T12:55:40;99179.31;;;10.63;40.10
26859;BME280;14429;48.346;16.338;2024-01-16T12:58:15;99189.53;;;10.69;40.64
26859;BME280;14429;48.346;16.338;2024-01-16T13:00:41;99187.78;;;10.47;38.32
26859;BME280;14429;48.346;16.338;2024-01-16T13:03:07;99194.84;;;10.91;40.10
26859;BME280;14429;48.346;16.338;2024-01-16T13:05:32;99188.41;;;10.72;40.53
26859;BME280;14429;48.346;16.338;2024-01-16T13:08:00;99184.44;;;11.09;39.77
26859;BME280;14429;48.346;16.338;2024-01-16T13:10:26;99191.13;;;10.93;40.03
26859;BME280;14429;48.346;16.338;2024-01-16T13:13:11;99195.59;;;10.82;40.20
26859;BME280;14429;48.346;16.338;2024-01-16T13:15:36;99200.44;;;11.09;39.86
26859;BME280;14429;48.346;16.338;2024-01-16T13:18:02;99190.75;;;10.98;39.99
26859;BME280;14429;48.346;16.338;2024-01-16T13:20:27;99190.47;;;10.79;40.29
26859;BME280;14429;48.346;16.338;2024-01-16T13:22:53;99198.03;;;11.06;39.91
26859;BME280;14429;48.346;16.338;2024-01-16T13:25:18;99212.94;;;10.98;39.90
26859;BME280;14429;48.346;16.338;2024-01-16T13:27:43;99202.84;;;10.69;40.56
26859;BME280;14429;48.346;16.338;2024-01-16T13:30:12;99201.91;;;10.92;39.98
26859;BME280;14429;48.346;16.338;2024-01-16T13:32:37;99209.38;;;10.76;36.94
26859;BME280;14429;48.346;16.338;2024-01-16T13:35:03;99208.78;;;10.05;37.90
26859;BME280;14429;48.346;16.338;2024-01-16T13:37:28;99209.53;;;10.41;37.10